Time;durP1;ratioP1;P1;durP2;ratioP2;P2;SDS_P1;SDS_P2;PMS_P1;PMS_P2;Temp;Humidity;BMP_temperature;BMP_pressure;BME280_temperature;BME280_humidity;BME280_pressure;Samples;Min_cycle;Max_cycle;Signal;HPM_P1;HPM_P2
2022/11/29 00:00:34;;;;;;;17.92;3.50;;;;;;;;;;6246313;23;20465;-59
2022/11/29 00:03:00;;;;;;;13.43;4.05;;;;;;;;;;6246260;23;20012;-59
2022/11/29 00:05:26;;;;;;;17.92;4.05;;;;;;;;;;6245624;23;20012;-59
2022/11/29 00:07:52;;;;;;;15.75;4.10;;;;;;;;;;6244994;23;20001;-59
2022/11/29 00:10:18;;;;;;;16.95;4.47;;;;;;;;;;6245979;23;20009;-59
2022/11/29 00:12:47;;;;;;;18.17;4.30;;;;;;;;;;6245512;23;20036;-59
2022/11/29 00:15:14;;;;;;;17.63;4.63;;;;;;;;;;6246725;23;20000;-59
2022/11/29 00:17:40;;;;;;;23.27;5.30;;;;;;;;;;6246095;23;20042;-59
2022/11/29 00:20:09;;;;;;;20.23;4.40;;;;;;;;;;6246264;23;20004;-59
2022/11/29 00:22:35;;;;;;;15.80;4.40;;;;;;;;;;6246068;22;20315;-59
2022/11/29 00:25:01;;;;;;;20.70;5.35;;;;;;;;;;6246135;23;20011;-59
2022/11/29 00:27:27;;;;;;;17.10;5.10;;;;;;;;;;6246227;22;20004;-59
2022/11/29 00:29:54;;;;;;;18.23;5.88;;;;;;;;;;6245354;22;20004;-59
2022/11/29 00:32:21;;;;;;;17.40;5.28;;;;;;;;;;6244555;23;20008;-59
2022/11/29 00:34:47;;;;;;;23.58;5.10;;;;;;;;;;6245207;23;20008;-59
2022/11/29 00:37:13;;;;;;;19.08;5.95;;;;;;;;;;6245725;23;20018;-59
2022/11/29 00:39:40;;;;;;;17.55;5.97;;;;;;;;;;6244862;23;20000;-59
2022/11/29 00:42:06;;;;;;;23.33;6.95;;;;;;;;;;6245532;22;20004;-59
2022/11/29 00:44:32;;;;;;;24.00;6.97;;;;;;;;;;6245285;23;20028;-59
2022/11/29 00:46:58;;;;;;;17.67;6.45;;;;;;;;;;6244756;23;20000;-59
2022/11/29 00:49:24;;;;;;;25.63;6.40;;;;;;;;;;6245903;23;20000;-59
2022/11/29 00:51:51;;;;;;;32.00;6.50;;;;;;;;;;6244813;23;20004;-59
2022/11/29 00:54:17;;;;;;;13.80;6.10;;;;;;;;;;6245398;23;20071;-59
2022/11/29 00:56:43;;;;;;;18.90;5.40;;;;;;;;;;6244715;23;20086;-59
2022/11/29 00:59:09;;;;;;;19.25;6.35;;;;;;;;;;6245045;23;20006;-59
2022/11/29 01:01:35;;;;;;;23.08;6.78;;;;;;;;;;6244422;23;20000;-59
2022/11/29 01:04:01;;;;;;;17.20;5.78;;;;;;;;;;6245273;23;20343;-59
2022/11/29 01:06:27;;;;;;;18.35;7.25;;;;;;;;;;6244226;23;20047;-59
2022/11/29 01:08:53;;;;;;;21.77;7.22;;;;;;;;;;6243943;23;20434;-59
2022/11/29 01:11:21;;;;;;;22.50;6.13;;;;;;;;;;6244628;23;20035;-59
2022/11/29 01:13:48;;;;;;;20.75;5.57;;;;;;;;;;6245035;23;20000;-59
2022/11/29 01:16:14;;;;;;;24.77;6.40;;;;;;;;;;6245315;23;20008;-58
2022/11/29 01:18:41;;;;;;;16.33;5.93;;;;;;;;;;6245499;23;20008;-59
2022/11/29 01:21:09;;;;;;;22.10;5.88;;;;;;;;;;6244925;23;20018;-59
2022/11/29 01:23:36;;;;;;;21.80;5.95;;;;;;;;;;6245025;23;20079;-59
2022/11/29 01:26:06;;;;;;;15.35;5.38;;;;;;;;;;6243406;22;20308;-59
2022/11/29 01:28:33;;;;;;;15.40;4.90;;;;;;;;;;6244691;22;20111;-59
2022/11/29 01:30:59;;;;;;;14.15;5.00;;;;;;;;;;6243704;23;20038;-59
2022/11/29 01:33:25;;;;;;;19.88;6.45;;;;;;;;;;6243956;23;20062;-59
2022/11/29 01:35:53;;;;;;;21.60;6.50;;;;;;;;;;6243457;23;20073;-59
2022/11/29 01:38:20;;;;;;;26.20;8.98;;;;;;;;;;6245287;23;20016;-59
2022/11/29 01:40:55;;;;;;;16.05;5.60;;;;;;;;;;6245048;23;20059;-59
2022/11/29 01:43:22;;;;;;;23.70;5.95;;;;;;;;;;6245055;23;20516;-59
2022/11/29 01:45:49;;;;;;;16.38;6.25;;;;;;;;;;6244791;23;20012;-59
2022/11/29 01:48:15;;;;;;;20.80;6.43;;;;;;;;;;6245421;23;20369;-59
2022/11/29 01:50:42;;;;;;;16.73;6.75;;;;;;;;;;6244908;23;20004;-58
2022/11/29 01:53:09;;;;;;;20.52;5.65;;;;;;;;;;6245139;23;20453;-59
2022/11/29 01:55:37;;;;;;;16.63;5.25;;;;;;;;;;6244596;23;20031;-58
2022/11/29 01:58:04;;;;;;;14.70;4.40;;;;;;;;;;6244825;23;20454;-59
2022/11/29 02:00:30;;;;;;;21.25;5.32;;;;;;;;;;6244161;23;20007;-59
2022/11/29 02:02:58;;;;;;;21.80;5.57;;;;;;;;;;6241414;23;20067;-59
2022/11/29 02:05:24;;;;;;;21.25;5.30;;;;;;;;;;6243982;23;20016;-59
2022/11/29 02:07:52;;;;;;;18.33;4.93;;;;;;;;;;6243851;23;20015;-59
2022/11/29 02:10:19;;;;;;;12.48;4.18;;;;;;;;;;6244915;23;20038;-59
2022/11/29 02:12:48;;;;;;;18.70;6.28;;;;;;;;;;6245516;23;20004;-59
2022/11/29 02:15:17;;;;;;;19.52;6.07;;;;;;;;;;6245155;23;20074;-58
2022/11/29 02:17:58;;;;;;;17.40;5.05;;;;;;;;;;6244989;23;20093;-58
2022/11/29 02:20:39;;;;;;;17.05;5.60;;;;;;;;;;6244631;23;20012;-59
2022/11/29 02:23:12;;;;;;;16.95;5.00;;;;;;;;;;6244399;23;20323;-59
2022/11/29 02:25:56;;;;;;;13.18;4.68;;;;;;;;;;6244953;23;20015;-59
2022/11/29 02:28:22;;;;;;;19.60;6.43;;;;;;;;;;6244828;23;20058;-59
2022/11/29 02:30:51;;;;;;;14.13;5.07;;;;;;;;;;6244854;23;20005;-59
2022/11/29 02:33:33;;;;;;;14.95;5.30;;;;;;;;;;6244554;23;20940;-58
2022/11/29 02:35:59;;;;;;;13.50;4.82;;;;;;;;;;6244586;23;20012;-59
2022/11/29 02:38:44;;;;;;;10.63;5.50;;;;;;;;;;6244735;23;20018;-59
2022/11/29 02:41:12;;;;;;;22.65;5.40;;;;;;;;;;6244643;23;20008;-59
2022/11/29 02:43:46;;;;;;;14.38;5.70;;;;;;;;;;6244675;23;20003;-59
2022/11/29 02:46:17;;;;;;;13.65;5.35;;;;;;;;;;6244328;23;20008;-59
2022/11/29 02:48:51;;;;;;;14.63;5.28;;;;;;;;;;6244535;23;20393;-59
2022/11/29 02:51:22;;;;;;;16.75;5.60;;;;;;;;;;6244660;23;20065;-59
2022/11/29 02:54:06;;;;;;;15.23;5.90;;;;;;;;;;6244416;23;20477;-59
2022/11/29 02:56:38;;;;;;;12.70;5.78;;;;;;;;;;6244695;23;20008;-59
2022/11/29 02:59:04;;;;;;;12.50;5.97;;;;;;;;;;6244220;23;20012;-58
2022/11/29 03:01:52;;;;;;;14.55;6.07;;;;;;;;;;6244448;23;20023;-58
2022/11/29 03:04:37;;;;;;;15.95;5.70;;;;;;;;;;6243672;23;20095;-59
2022/11/29 03:07:39;;;;;;;12.93;4.85;;;;;;;;;;6244043;23;20019;-58
2022/11/29 03:10:12;;;;;;;12.18;5.20;;;;;;;;;;6121910;23;20033;-59
2022/11/29 03:12:40;;;;;;;13.00;5.55;;;;;;;;;;6122545;23;20006;-58
2022/11/29 03:15:16;;;;;;;13.77;4.88;;;;;;;;;;6122059;23;20006;-58
2022/11/29 03:17:42;;;;;;;15.13;5.32;;;;;;;;;;6122045;23;20499;-58
2022/11/29 03:20:27;;;;;;;11.40;4.78;;;;;;;;;;6122092;23;20473;-59
2022/11/29 03:23:11;;;;;;;15.35;5.18;;;;;;;;;;6122213;23;20018;-58
2022/11/29 03:25:46;;;;;;;11.52;4.78;;;;;;;;;;6122369;23;20368;-59
2022/11/29 03:28:30;;;;;;;10.30;5.03;;;;;;;;;;6122083;23;20010;-59
2022/11/29 03:31:05;;;;;;;11.45;4.13;;;;;;;;;;6122066;23;20655;-58
2022/11/29 03:33:57;;;;;;;11.60;4.57;;;;;;;;;;6122207;23;20006;-58
2022/11/29 03:36:28;;;;;;;12.07;4.22;;;;;;;;;;6035310;23;20031;-58
2022/11/29 03:38:57;;;;;;;12.68;4.28;;;;;;;;;;6035786;23;20031;-59
2022/11/29 03:41:27;;;;;;;14.75;4.15;;;;;;;;;;6035281;23;20008;-58
2022/11/29 03:44:14;;;;;;;9.27;4.05;;;;;;;;;;6086859;23;20147;-59
2022/11/29 03:46:50;;;;;;;13.23;4.03;;;;;;;;;;6151924;23;20452;-59
2022/11/29 03:49:42;;;;;;;17.27;3.65;;;;;;;;;;6151680;23;20009;-58
2022/11/29 03:52:15;;;;;;;10.00;3.97;;;;;;;;;;6108117;23;20013;-58
2022/11/29 03:55:00;;;;;;;10.90;3.80;;;;;;;;;;6151695;23;20014;-59
2022/11/29 03:57:31;;;;;;;12.50;4.57;;;;;;;;;;6151417;23;20028;-58
2022/11/29 04:00:03;;;;;;;21.00;4.78;;;;;;;;;;6151410;23;20041;-59
2022/11/29 04:02:40;;;;;;;19.58;3.95;;;;;;;;;;6151648;23;20017;-58
2022/11/29 04:05:06;;;;;;;22.38;6.88;;;;;;;;;;6151676;23;20036;-58
2022/11/29 04:07:50;;;;;;;19.80;4.22;;;;;;;;;;6151578;23;20020;-58
2022/11/29 04:10:19;;;;;;;13.05;5.55;;;;;;;;;;6151294;23;20059;-58
2022/11/29 04:13:04;;;;;;;20.50;6.75;;;;;;;;;;6182961;23;20503;-59
2022/11/29 04:15:43;;;;;;;18.67;8.68;;;;;;;;;;6243627;23;20019;-59
2022/11/29 04:18:19;;;;;;;19.38;6.30;;;;;;;;;;6244354;23;20008;-59
2022/11/29 04:20:45;;;;;;;17.88;6.72;;;;;;;;;;6246208;23;20035;-63
2022/11/29 04:23:25;;;;;;;20.58;5.55;;;;;;;;;;6245761;23;20007;-63
2022/11/29 04:25:54;;;;;;;14.88;4.65;;;;;;;;;;6246235;23;20058;-63
2022/11/29 04:28:20;;;;;;;11.68;4.60;;;;;;;;;;6245843;23;20031;-63
2022/11/29 04:30:49;;;;;;;13.95;4.05;;;;;;;;;;6245876;23;20616;-63
2022/11/29 04:33:15;;;;;;;13.70;6.32;;;;;;;;;;6245832;23;19996;-63
2022/11/29 04:35:51;;;;;;;9.65;3.63;;;;;;;;;;6245883;23;20074;-63
2022/11/29 04:38:29;;;;;;;12.20;3.75;;;;;;;;;;6245099;23;20047;-63
2022/11/29 04:40:56;;;;;;;16.02;4.25;;;;;;;;;;6244743;23;20422;-63
2022/11/29 04:43:34;;;;;;;10.32;4.28;;;;;;;;;;6243069;23;20008;-63
2022/11/29 04:46:19;;;;;;;12.35;6.18;;;;;;;;;;6243651;23;20004;-63
2022/11/29 04:48:45;;;;;;;11.48;4.18;;;;;;;;;;6245102;23;20004;-63
2022/11/29 04:51:31;;;;;;;13.30;4.07;;;;;;;;;;6245147;23;20004;-63
2022/11/29 04:54:03;;;;;;;13.77;4.22;;;;;;;;;;6225315;23;20008;-63
2022/11/29 04:56:29;;;;;;;16.75;4.47;;;;;;;;;;6245282;23;20004;-63
2022/11/29 04:58:55;;;;;;;13.23;3.50;;;;;;;;;;6245332;23;20004;-63
2022/11/29 05:01:41;;;;;;;11.93;3.92;;;;;;;;;;6245868;23;20397;-63
2022/11/29 05:04:23;;;;;;;8.90;3.55;;;;;;;;;;6123344;23;20093;-63
2022/11/29 05:06:49;;;;;;;16.10;5.28;;;;;;;;;;6123296;23;20018;-63
2022/11/29 05:09:22;;;;;;;15.75;3.97;;;;;;;;;;6123493;23;20010;-63
2022/11/29 05:12:05;;;;;;;11.05;3.60;;;;;;;;;;6123290;23;20006;-63
2022/11/29 05:14:50;;;;;;;10.50;3.40;;;;;;;;;;6123080;23;20011;-63
2022/11/29 05:17:28;;;;;;;20.52;4.13;;;;;;;;;;6123561;23;20006;-63
2022/11/29 05:20:04;;;;;;;11.75;3.92;;;;;;;;;;6123787;23;20014;-63
2022/11/29 05:22:30;;;;;;;16.27;3.40;;;;;;;;;;6123348;23;20010;-63
2022/11/29 05:25:15;;;;;;;9.10;3.20;;;;;;;;;;6123287;23;20448;-63
2022/11/29 05:27:44;;;;;;;21.02;3.97;;;;;;;;;;6122806;23;20464;-63
2022/11/29 05:30:17;;;;;;;10.20;4.13;;;;;;;;;;6121768;23;20006;-63
2022/11/29 05:32:46;;;;;;;10.23;3.38;;;;;;;;;;6121824;23;20010;-63
2022/11/29 05:35:24;;;;;;;8.15;3.58;;;;;;;;;;6122091;23;20010;-63
2022/11/29 05:38:04;;;;;;;14.20;3.67;;;;;;;;;;6121649;23;20049;-63
2022/11/29 05:40:40;;;;;;;9.43;3.75;;;;;;;;;;6146447;23;20012;-63
2022/11/29 05:43:06;;;;;;;7.10;2.83;;;;;;;;;;6244182;23;20075;-63
2022/11/29 05:45:32;;;;;;;9.65;3.25;;;;;;;;;;6244408;23;20000;-63
2022/11/29 05:48:10;;;;;;;20.42;5.85;;;;;;;;;;6245180;23;20004;-63
2022/11/29 05:50:42;;;;;;;10.00;3.38;;;;;;;;;;6244280;23;20077;-63
2022/11/29 05:53:19;;;;;;;9.80;4.05;;;;;;;;;;6244784;23;20097;-63
2022/11/29 05:55:52;;;;;;;12.63;3.72;;;;;;;;;;6244003;23;20105;-63
2022/11/29 05:58:28;;;;;;;15.52;4.30;;;;;;;;;;6243870;23;20012;-63
2022/11/29 06:00:54;;;;;;;17.02;5.28;;;;;;;;;;6244268;23;20035;-63
2022/11/29 06:03:29;;;;;;;11.13;4.43;;;;;;;;;;6243788;23;20054;-63
2022/11/29 06:06:02;;;;;;;12.32;4.30;;;;;;;;;;6242749;23;20012;-63
2022/11/29 06:08:47;;;;;;;10.65;4.40;;;;;;;;;;6243152;23;20079;-63
2022/11/29 06:11:38;;;;;;;14.40;5.25;;;;;;;;;;6241469;23;20012;-64
2022/11/29 06:14:12;;;;;;;23.77;5.72;;;;;;;;;;6243061;23;20001;-63
2022/11/29 06:16:56;;;;;;;10.10;4.30;;;;;;;;;;6243654;22;20091;-63
2022/11/29 06:19:41;;;;;;;16.65;3.92;;;;;;;;;;6243838;23;20008;-63
2022/11/29 06:22:20;;;;;;;16.17;4.32;;;;;;;;;;6244673;22;20074;-63
2022/11/29 06:24:46;;;;;;;11.13;4.15;;;;;;;;;;6243487;22;20008;-63
2022/11/29 06:27:12;;;;;;;14.45;4.22;;;;;;;;;;6244495;23;19996;-63
2022/11/29 06:29:46;;;;;;;9.38;3.78;;;;;;;;;;6242615;23;20046;-63
2022/11/29 06:32:25;;;;;;;9.35;3.47;;;;;;;;;;6243278;23;20043;-63
2022/11/29 06:35:01;;;;;;;13.40;3.88;;;;;;;;;;6243456;23;20012;-63
2022/11/29 06:37:48;;;;;;;8.65;3.75;;;;;;;;;;6243477;23;20011;-63
2022/11/29 06:40:15;;;;;;;16.35;3.88;;;;;;;;;;6243062;23;20083;-63
2022/11/29 06:42:41;;;;;;;10.32;3.85;;;;;;;;;;6241967;23;20000;-64
2022/11/29 06:45:10;;;;;;;8.05;3.60;;;;;;;;;;6242944;23;20015;-63
2022/11/29 06:47:43;;;;;;;12.73;4.97;;;;;;;;;;6244342;23;20001;-63
2022/11/29 06:50:10;;;;;;;10.45;4.10;;;;;;;;;;6243309;23;20004;-64
2022/11/29 06:52:49;;;;;;;12.57;4.43;;;;;;;;;;6244527;23;20334;-63
2022/11/29 06:55:27;;;;;;;10.63;3.83;;;;;;;;;;6243208;23;20032;-63
2022/11/29 06:58:02;;;;;;;12.98;3.90;;;;;;;;;;6243658;23;20015;-63
2022/11/29 07:00:43;;;;;;;10.35;3.67;;;;;;;;;;6244104;23;20019;-63
2022/11/29 07:03:11;;;;;;;30.13;5.75;;;;;;;;;;6243832;23;20011;-64
2022/11/29 07:05:38;;;;;;;6.97;4.25;;;;;;;;;;6243809;23;20016;-63
2022/11/29 07:08:06;;;;;;;11.05;4.00;;;;;;;;;;6243735;23;20320;-64
2022/11/29 07:10:34;;;;;;;9.52;4.32;;;;;;;;;;6241034;23;20008;-63
2022/11/29 07:13:00;;;;;;;18.05;4.57;;;;;;;;;;6242946;23;20011;-64
2022/11/29 07:15:27;;;;;;;12.68;4.05;;;;;;;;;;6242572;23;20028;-63
2022/11/29 07:18:02;;;;;;;15.65;5.15;;;;;;;;;;6242938;23;20381;-63
2022/11/29 07:20:28;;;;;;;7.88;3.60;;;;;;;;;;6242908;23;20079;-63
2022/11/29 07:23:03;;;;;;;10.13;4.35;;;;;;;;;;6242158;23;20075;-63
2022/11/29 07:25:47;;;;;;;11.18;3.88;;;;;;;;;;6242359;23;20443;-64
2022/11/29 07:28:13;;;;;;;11.48;4.40;;;;;;;;;;6242551;23;20027;-63
2022/11/29 07:30:39;;;;;;;8.75;4.43;;;;;;;;;;6242850;23;20070;-63
2022/11/29 07:33:30;;;;;;;15.23;4.35;;;;;;;;;;6242388;23;20319;-63
2022/11/29 07:36:08;;;;;;;10.32;3.72;;;;;;;;;;6241990;23;20015;-63
2022/11/29 07:38:49;;;;;;;12.10;4.78;;;;;;;;;;6242094;23;20043;-63
2022/11/29 07:41:31;;;;;;;9.95;4.03;;;;;;;;;;6242061;23;20042;-64
2022/11/29 07:44:00;;;;;;;7.63;3.80;;;;;;;;;;6241839;23;20004;-64
2022/11/29 07:46:27;;;;;;;12.05;3.95;;;;;;;;;;6241705;23;20464;-63
2022/11/29 07:48:54;;;;;;;8.65;3.88;;;;;;;;;;6241553;22;20339;-63
2022/11/29 07:51:20;;;;;;;12.93;4.70;;;;;;;;;;6241808;23;20007;-64
2022/11/29 07:53:46;;;;;;;16.42;6.53;;;;;;;;;;6242234;23;20245;-63
2022/11/29 07:56:15;;;;;;;15.77;6.78;;;;;;;;;;6244516;23;20327;-63
2022/11/29 07:58:41;;;;;;;16.95;6.22;;;;;;;;;;6244039;22;20083;-64
2022/11/29 08:01:07;;;;;;;13.45;6.20;;;;;;;;;;6243376;23;20000;-64
2022/11/29 08:03:34;;;;;;;14.18;6.00;;;;;;;;;;6244725;23;20008;-64
2022/11/29 08:06:01;;;;;;;19.13;5.18;;;;;;;;;;6243205;22;20015;-66
2022/11/29 08:08:27;;;;;;;13.23;4.47;;;;;;;;;;6245073;23;20004;-64
2022/11/29 08:10:53;;;;;;;11.32;5.18;;;;;;;;;;6244406;23;20004;-64
2022/11/29 08:13:20;;;;;;;17.58;5.10;;;;;;;;;;6244991;23;20004;-64
2022/11/29 08:15:47;;;;;;;16.98;5.60;;;;;;;;;;6245208;23;20019;-64
2022/11/29 08:18:13;;;;;;;11.00;4.75;;;;;;;;;;6244990;23;20008;-64
2022/11/29 08:20:40;;;;;;;16.73;4.43;;;;;;;;;;6242982;23;20076;-64
2022/11/29 08:23:07;;;;;;;12.75;4.10;;;;;;;;;;6244157;22;20131;-64
2022/11/29 08:25:33;;;;;;;16.45;4.50;;;;;;;;;;6245179;23;20015;-64
2022/11/29 08:28:01;;;;;;;17.83;6.55;;;;;;;;;;6245184;23;20004;-64
2022/11/29 08:30:27;;;;;;;17.05;6.28;;;;;;;;;;6245032;23;20007;-64
2022/11/29 08:32:53;;;;;;;14.90;5.43;;;;;;;;;;6244486;23;20008;-64
2022/11/29 08:35:20;;;;;;;13.38;5.28;;;;;;;;;;6243417;23;20079;-64
2022/11/29 08:37:47;;;;;;;18.42;6.35;;;;;;;;;;6244248;23;20476;-64
2022/11/29 08:40:13;;;;;;;16.67;6.75;;;;;;;;;;6243480;23;20011;-67
2022/11/29 08:42:39;;;;;;;14.88;6.57;;;;;;;;;;6243756;23;20449;-64
2022/11/29 08:45:06;;;;;;;14.20;5.55;;;;;;;;;;6243436;23;20001;-64
2022/11/29 08:47:36;;;;;;;11.30;4.93;;;;;;;;;;6243909;23;20008;-66
2022/11/29 08:50:03;;;;;;;15.45;5.70;;;;;;;;;;6243045;23;20012;-64
2022/11/29 08:55:15;;;;;;;14.85;6.25;;;;;;;;;;6243920;23;20392;-63
2022/11/29 08:57:41;;;;;;;16.27;7.30;;;;;;;;;;6244189;23;20010;-63
2022/11/29 09:00:08;;;;;;;17.77;7.38;;;;;;;;;;6244952;23;20441;-63
2022/11/29 09:02:35;;;;;;;16.48;6.45;;;;;;;;;;6245134;23;20342;-63
2022/11/29 09:05:01;;;;;;;12.93;6.15;;;;;;;;;;6243697;22;20008;-62
2022/11/29 09:07:28;;;;;;;16.08;6.57;;;;;;;;;;6244925;23;20093;-63
2022/11/29 09:09:54;;;;;;;15.32;7.80;;;;;;;;;;6245194;23;20067;-63
2022/11/29 09:12:20;;;;;;;42.05;15.75;;;;;;;;;;6245022;23;20004;-63
2022/11/29 09:14:46;;;;;;;35.58;14.57;;;;;;;;;;6245019;23;20078;-63
2022/11/29 09:17:12;;;;;;;33.33;13.88;;;;;;;;;;6244690;23;20004;-63
2022/11/29 09:19:38;;;;;;;19.98;9.18;;;;;;;;;;6244538;23;20358;-63
2022/11/29 09:22:04;;;;;;;25.23;10.13;;;;;;;;;;6244527;23;20074;-63
2022/11/29 09:24:30;;;;;;;22.17;9.43;;;;;;;;;;6244770;23;20385;-63
2022/11/29 09:26:56;;;;;;;18.90;7.88;;;;;;;;;;6244946;23;20032;-63
2022/11/29 09:29:22;;;;;;;20.23;7.32;;;;;;;;;;6244544;23;20000;-63
2022/11/29 09:31:48;;;;;;;16.52;6.97;;;;;;;;;;6244670;23;20004;-63
2022/11/29 09:34:17;;;;;;;18.48;7.70;;;;;;;;;;6244241;23;20007;-63
2022/11/29 09:36:43;;;;;;;21.52;8.15;;;;;;;;;;6244731;22;20458;-63
2022/11/29 09:39:11;;;;;;;20.73;7.78;;;;;;;;;;6244405;23;20008;-63
2022/11/29 09:41:41;;;;;;;22.63;7.68;;;;;;;;;;6244598;22;20016;-63
2022/11/29 09:44:07;;;;;;;16.85;7.90;;;;;;;;;;6244500;23;20438;-63
2022/11/29 09:46:37;;;;;;;17.63;9.00;;;;;;;;;;6244579;23;20080;-63
2022/11/29 09:49:21;;;;;;;23.27;9.80;;;;;;;;;;6244420;23;20015;-63
2022/11/29 09:51:50;;;;;;;13.63;7.22;;;;;;;;;;6244776;23;20023;-63
2022/11/29 09:54:16;;;;;;;14.20;7.88;;;;;;;;;;6244143;23;20010;-63
2022/11/29 09:56:48;;;;;;;12.57;6.85;;;;;;;;;;6244725;23;20008;-63
2022/11/29 09:59:27;;;;;;;19.08;8.15;;;;;;;;;;6244190;23;20011;-63
2022/11/29 10:02:14;;;;;;;19.33;10.10;;;;;;;;;;6244537;22;20015;-63
2022/11/29 10:04:43;;;;;;;33.00;12.55;;;;;;;;;;6223707;23;20023;-63
2022/11/29 10:07:27;;;;;;;19.05;7.78;;;;;;;;;;6244021;23;20012;-63
2022/11/29 10:09:56;;;;;;;14.73;5.20;;;;;;;;;;6244538;23;20008;-63
2022/11/29 10:12:25;;;;;;;13.27;6.05;;;;;;;;;;6243793;23;20056;-63
2022/11/29 10:14:57;;;;;;;16.88;7.47;;;;;;;;;;6244248;23;20011;-63
2022/11/29 10:17:25;;;;;;;13.75;4.93;;;;;;;;;;6243068;23;20039;-63
2022/11/29 10:19:58;;;;;;;9.93;2.53;;;;;;;;;;6244372;23;20027;-63
2022/11/29 10:22:27;;;;;;;13.23;2.20;;;;;;;;;;6243949;23;20019;-63
2022/11/29 10:24:57;;;;;;;8.13;2.30;;;;;;;;;;6244217;23;20014;-63
2022/11/29 10:27:27;;;;;;;5.82;1.15;;;;;;;;;;6243891;23;20039;-63
2022/11/29 10:29:53;;;;;;;2.17;1.00;;;;;;;;;;6244024;23;20497;-63
2022/11/29 10:32:22;;;;;;;5.53;1.40;;;;;;;;;;6243604;23;20442;-63
2022/11/29 10:34:48;;;;;;;9.23;1.73;;;;;;;;;;6243951;22;20465;-63
2022/11/29 10:37:19;;;;;;;4.85;1.40;;;;;;;;;;6244017;23;20011;-63
2022/11/29 10:39:52;;;;;;;5.45;1.33;;;;;;;;;;6243810;23;20031;-63
2022/11/29 10:45:16;;;;;;;8.82;1.15;;;;;;;;;;6244003;23;20008;-63
2022/11/29 10:47:44;;;;;;;8.57;1.55;;;;;;;;;;6244077;22;20004;-63
2022/11/29 10:50:18;;;;;;;4.28;1.20;;;;;;;;;;6244009;23;20050;-63
2022/11/29 10:52:44;;;;;;;4.65;1.13;;;;;;;;;;6243902;23;20073;-63
2022/11/29 10:55:15;;;;;;;4.65;1.10;;;;;;;;;;6244240;23;20004;-63
2022/11/29 10:58:00;;;;;;;5.10;1.25;;;;;;;;;;6243619;23;20008;-63
2022/11/29 11:00:26;;;;;;;6.80;1.20;;;;;;;;;;6243041;23;20023;-63
2022/11/29 11:02:52;;;;;;;3.75;0.88;;;;;;;;;;6243802;23;20050;-63
2022/11/29 11:05:24;;;;;;;2.05;0.93;;;;;;;;;;6243355;23;20016;-63
2022/11/29 11:07:58;;;;;;;6.18;1.25;;;;;;;;;;6242737;23;20024;-63
2022/11/29 11:10:28;;;;;;;6.60;1.25;;;;;;;;;;6243811;23;20442;-63
2022/11/29 11:13:01;;;;;;;3.70;0.90;;;;;;;;;;6244274;23;20008;-63
2022/11/29 11:15:29;;;;;;;4.25;0.98;;;;;;;;;;6243626;22;20027;-63
2022/11/29 11:17:56;;;;;;;6.25;1.00;;;;;;;;;;6244522;23;20449;-63
2022/11/29 11:20:23;;;;;;;3.72;1.13;;;;;;;;;;6244381;23;20342;-63
2022/11/29 11:23:16;;;;;;;5.57;1.05;;;;;;;;;;6244282;23;20075;-63
2022/11/29 11:25:42;;;;;;;3.65;1.48;;;;;;;;;;6238630;23;20012;-63
2022/11/29 11:28:21;;;;;;;5.57;1.35;;;;;;;;;;6246158;23;20381;-63
2022/11/29 11:31:01;;;;;;;9.07;1.10;;;;;;;;;;6247094;23;20089;-63
2022/11/29 11:33:37;;;;;;;3.97;0.85;;;;;;;;;;6247504;23;20015;-63
2022/11/29 11:36:07;;;;;;;6.80;1.10;;;;;;;;;;6247767;23;20031;-63
2022/11/29 11:38:37;;;;;;;6.30;0.88;;;;;;;;;;6247191;23;20073;-63
2022/11/29 11:41:14;;;;;;;5.85;1.33;;;;;;;;;;6247960;23;20023;-63
2022/11/29 11:43:40;;;;;;;4.30;1.00;;;;;;;;;;6247028;23;20008;-63
2022/11/29 11:46:06;;;;;;;2.28;0.85;;;;;;;;;;6247704;23;20008;-63
2022/11/29 11:48:32;;;;;;;3.42;1.00;;;;;;;;;;6247446;23;20007;-63
2022/11/29 11:50:59;;;;;;;3.67;0.93;;;;;;;;;;6247169;23;20078;-63
2022/11/29 11:53:28;;;;;;;7.80;1.30;;;;;;;;;;6247924;23;20015;-63
2022/11/29 11:55:57;;;;;;;10.05;1.90;;;;;;;;;;6247826;23;20076;-63
2022/11/29 11:58:23;;;;;;;5.75;1.42;;;;;;;;;;6247857;23;20012;-63
2022/11/29 12:00:57;;;;;;;2.40;1.02;;;;;;;;;;6247335;23;20011;-63
2022/11/29 12:03:26;;;;;;;6.28;1.48;;;;;;;;;;6247670;23;20091;-63
2022/11/29 12:05:54;;;;;;;5.57;0.90;;;;;;;;;;6246809;23;20087;-63
2022/11/29 12:08:21;;;;;;;7.35;1.15;;;;;;;;;;6247645;23;20024;-63
2022/11/29 12:10:50;;;;;;;6.45;1.00;;;;;;;;;;6247368;23;20125;-63
2022/11/29 12:13:19;;;;;;;3.25;0.90;;;;;;;;;;6247389;23;20046;-63
2022/11/29 12:15:47;;;;;;;2.70;0.60;;;;;;;;;;6247509;22;20026;-63
2022/11/29 12:18:22;;;;;;;3.97;0.90;;;;;;;;;;6247732;23;20461;-63
2022/11/29 12:21:12;;;;;;;11.20;1.25;;;;;;;;;;6247188;23;20004;-63
2022/11/29 12:23:48;;;;;;;4.63;0.80;;;;;;;;;;6247118;23;20026;-63
2022/11/29 12:26:16;;;;;;;6.95;1.45;;;;;;;;;;6247451;22;20008;-63
2022/11/29 12:28:44;;;;;;;5.55;0.93;;;;;;;;;;6247165;23;20446;-63
2022/11/29 12:31:16;;;;;;;4.20;0.82;;;;;;;;;;6247775;23;20008;-63
2022/11/29 12:33:51;;;;;;;2.40;0.80;;;;;;;;;;6247119;23;20454;-63
2022/11/29 12:36:17;;;;;;;3.42;1.10;;;;;;;;;;6247675;23;20062;-63
2022/11/29 12:38:51;;;;;;;6.57;1.38;;;;;;;;;;6246647;23;20003;-63
2022/11/29 12:41:35;;;;;;;4.72;0.82;;;;;;;;;;6245780;23;20004;-63
2022/11/29 12:44:17;;;;;;;5.47;1.10;;;;;;;;;;6245912;23;20427;-63
2022/11/29 12:46:47;;;;;;;4.07;0.90;;;;;;;;;;6245429;23;20016;-63
2022/11/29 12:49:13;;;;;;;8.63;1.00;;;;;;;;;;6246110;23;20012;-63
2022/11/29 12:51:45;;;;;;;2.80;0.88;;;;;;;;;;6245749;23;20055;-63
2022/11/29 12:54:18;;;;;;;3.50;1.20;;;;;;;;;;6245645;23;20000;-63
2022/11/29 12:56:44;;;;;;;4.15;1.13;;;;;;;;;;6245093;23;20030;-63
2022/11/29 12:59:28;;;;;;;2.42;0.70;;;;;;;;;;6245560;23;20000;-63
2022/11/29 13:01:54;;;;;;;2.28;0.90;;;;;;;;;;6245508;23;20011;-63
2022/11/29 13:04:29;;;;;;;4.03;1.13;;;;;;;;;;6245548;23;20039;-63
2022/11/29 13:07:02;;;;;;;3.20;0.90;;;;;;;;;;6244971;23;20023;-63
2022/11/29 13:09:47;;;;;;;4.70;1.15;;;;;;;;;;6245682;23;20000;-63
2022/11/29 13:12:16;;;;;;;1.40;0.82;;;;;;;;;;6245246;23;20450;-63
2022/11/29 13:15:00;;;;;;;4.32;1.30;;;;;;;;;;6245404;23;20007;-63
2022/11/29 13:17:33;;;;;;;2.38;0.90;;;;;;;;;;6245578;23;20008;-63
2022/11/29 13:20:29;;;;;;;2.22;0.80;;;;;;;;;;6245334;23;20004;-63
2022/11/29 13:22:55;;;;;;;5.43;1.02;;;;;;;;;;6122495;23;20036;-63
2022/11/29 13:25:24;;;;;;;7.07;1.10;;;;;;;;;;6123035;23;20006;-63
2022/11/29 13:27:58;;;;;;;1.45;0.70;;;;;;;;;;6123146;23;20009;-63
2022/11/29 13:30:25;;;;;;;5.95;1.58;;;;;;;;;;6123533;23;20063;-63
2022/11/29 13:33:02;;;;;;;4.10;1.02;;;;;;;;;;6123159;23;20405;-63
2022/11/29 13:35:28;;;;;;;1.48;1.05;;;;;;;;;;6123600;23;20088;-63
2022/11/29 13:38:13;;;;;;;7.32;1.52;;;;;;;;;;6123238;23;20010;-63
2022/11/29 13:40:44;;;;;;;3.75;1.23;;;;;;;;;;6122801;23;20492;-63
2022/11/29 13:43:20;;;;;;;2.15;1.00;;;;;;;;;;6122876;23;20034;-63
2022/11/29 13:45:57;;;;;;;3.33;0.80;;;;;;;;;;6122810;23;20020;-63
2022/11/29 13:48:47;;;;;;;1.92;0.80;;;;;;;;;;6123221;23;20089;-63
2022/11/29 13:51:32;;;;;;;2.92;0.80;;;;;;;;;;6122679;23;20072;-63
2022/11/29 13:54:02;;;;;;;4.10;0.77;;;;;;;;;;6122811;23;20381;-63
2022/11/29 13:56:41;;;;;;;4.88;1.20;;;;;;;;;;6122765;23;20089;-63
2022/11/29 13:59:08;;;;;;;2.08;0.88;;;;;;;;;;6175082;23;20217;-63
2022/11/29 14:01:49;;;;;;;3.97;0.90;;;;;;;;;;6244910;23;20004;-63
2022/11/29 14:04:26;;;;;;;8.30;1.25;;;;;;;;;;6244776;22;20062;-63
2022/11/29 14:07:10;;;;;;;6.70;1.45;;;;;;;;;;6244443;23;20008;-63
2022/11/29 14:09:55;;;;;;;4.53;1.10;;;;;;;;;;6244733;22;20008;-63
2022/11/29 14:12:38;;;;;;;5.28;1.33;;;;;;;;;;6245030;22;20409;-63
2022/11/29 14:15:14;;;;;;;3.83;1.25;;;;;;;;;;6244809;23;20035;-64
2022/11/29 14:17:46;;;;;;;5.07;1.10;;;;;;;;;;6241667;23;20094;-64
2022/11/29 14:20:25;;;;;;;5.00;1.58;;;;;;;;;;6243676;23;20032;-64
2022/11/29 14:23:20;;;;;;;5.57;1.65;;;;;;;;;;6244570;22;20019;-63
2022/11/29 14:25:55;;;;;;;6.85;1.30;;;;;;;;;;6218488;22;20012;-63
2022/11/29 14:28:21;;;;;;;9.48;1.55;;;;;;;;;;6244302;23;20517;-63
2022/11/29 14:30:47;;;;;;;4.32;1.33;;;;;;;;;;6244263;23;20377;-63
2022/11/29 14:33:20;;;;;;;4.32;1.60;;;;;;;;;;6241725;23;20087;-63
2022/11/29 14:35:56;;;;;;;10.20;2.03;;;;;;;;;;6244514;23;20445;-63
2022/11/29 14:38:28;;;;;;;4.47;1.85;;;;;;;;;;6243773;23;20457;-63
2022/11/29 14:40:59;;;;;;;7.00;1.73;;;;;;;;;;6244231;23;20079;-63
2022/11/29 14:43:31;;;;;;;7.63;2.20;;;;;;;;;;6243379;23;20342;-63
2022/11/29 14:46:06;;;;;;;8.00;1.50;;;;;;;;;;6243689;23;20058;-63
2022/11/29 14:48:33;;;;;;;5.53;1.40;;;;;;;;;;6244316;23;20011;-63
2022/11/29 14:51:15;;;;;;;6.85;1.67;;;;;;;;;;6243912;23;19996;-63
2022/11/29 14:53:42;;;;;;;1.58;0.98;;;;;;;;;;6242348;23;20000;-63
2022/11/29 14:56:27;;;;;;;4.20;1.15;;;;;;;;;;6243537;23;20442;-63
2022/11/29 14:59:11;;;;;;;3.88;1.05;;;;;;;;;;6243799;23;20460;-63
2022/11/29 15:01:42;;;;;;;2.38;1.05;;;;;;;;;;6243922;23;20346;-63
2022/11/29 15:04:08;;;;;;;5.45;0.88;;;;;;;;;;6243104;23;20008;-63
2022/11/29 15:06:35;;;;;;;5.18;1.05;;;;;;;;;;6243223;23;20051;-63